createdAt,value
2023-03-03T00:01:24.103Z,-1.25
2023-03-03T00:03:50.657Z,-1.28
2023-03-03T00:06:17.050Z,-1.31
2023-03-03T00:08:43.350Z,-1.36
2023-03-03T00:11:09.940Z,-1.40
2023-03-03T00:13:40.474Z,-1.43
2023-03-03T00:16:25.152Z,-1.42
2023-03-03T00:18:52.317Z,-1.34
2023-03-03T00:21:22.770Z,-1.28
2023-03-03T00:23:49.126Z,-1.21
2023-03-03T00:26:21.298Z,-1.20
2023-03-03T00:28:48.895Z,-1.24
2023-03-03T00:31:18.319Z,-1.29
2023-03-03T00:33:53.054Z,-1.35
2023-03-03T00:36:22.607Z,-1.42
2023-03-03T00:38:49.447Z,-1.49
2023-03-03T00:41:21.968Z,-1.55
2023-03-03T00:43:48.231Z,-1.59
2023-03-03T00:46:18.829Z,-1.59
2023-03-03T00:48:46.315Z,-1.57
2023-03-03T00:51:18.557Z,-1.54
2023-03-03T00:53:45.036Z,-1.54
2023-03-03T00:56:11.354Z,-1.56
2023-03-03T00:58:37.762Z,-1.59
2023-03-03T01:01:04.474Z,-1.57
2023-03-03T01:03:38.357Z,-1.51
2023-03-03T01:06:04.713Z,-1.40
2023-03-03T01:08:32.124Z,-1.30
2023-03-03T01:11:02.690Z,-1.21
2023-03-03T01:13:30.800Z,-1.15
2023-03-03T01:15:57.966Z,-1.12
2023-03-03T01:18:24.445Z,-1.14
2023-03-03T01:20:51.148Z,-1.18
2023-03-03T01:23:17.459Z,-1.23
2023-03-03T01:25:43.861Z,-1.30
2023-03-03T01:28:10.244Z,-1.35
2023-03-03T01:30:37.014Z,-1.38
2023-03-03T01:33:03.367Z,-1.40
2023-03-03T01:35:29.804Z,-1.39
2023-03-03T01:37:56.270Z,-1.38
2023-03-03T01:40:24.219Z,-1.42
2023-03-03T01:42:50.932Z,-1.44
2023-03-03T01:45:25.084Z,-1.45
2023-03-03T01:47:51.332Z,-1.47
2023-03-03T01:50:24.460Z,-1.51
2023-03-03T01:52:50.821Z,-1.55
2023-03-03T01:55:23.093Z,-1.60
2023-03-03T01:57:54.580Z,-1.66
2023-03-03T02:00:21.041Z,-1.70
2023-03-03T02:02:48.142Z,-1.73
2023-03-03T02:05:15.871Z,-1.78
2023-03-03T02:07:43.490Z,-1.83
2023-03-03T02:10:14.496Z,-1.85
2023-03-03T02:12:42.681Z,-1.88
2023-03-03T02:15:29.131Z,-1.88
2023-03-03T02:17:58.643Z,-1.91
2023-03-03T02:20:43.953Z,-1.94
2023-03-03T02:23:10.594Z,-1.97
2023-03-03T02:25:43.343Z,-1.99
2023-03-03T02:28:09.681Z,-2.02
2023-03-03T02:30:37.251Z,-2.04
2023-03-03T02:33:03.766Z,-2.05
2023-03-03T02:35:32.106Z,-2.06
2023-03-03T02:38:07.144Z,-2.08
2023-03-03T02:40:37.529Z,-2.07
2023-03-03T02:43:06.244Z,-2.06
2023-03-03T02:45:32.875Z,-2.03
2023-03-03T02:47:59.396Z,-2.06
2023-03-03T02:50:25.862Z,-2.10
2023-03-03T02:52:52.362Z,-2.13
2023-03-03T02:55:19.136Z,-2.14
2023-03-03T02:57:45.414Z,-2.15
2023-03-03T03:00:11.896Z,-2.14
2023-03-03T03:03:09.700Z,-2.15
2023-03-03T03:05:37.961Z,-2.14
2023-03-03T03:08:04.588Z,-2.16
2023-03-03T03:10:31.146Z,-2.18
2023-03-03T03:12:58.013Z,-2.19
2023-03-03T03:15:24.649Z,-2.23
2023-03-03T03:17:51.011Z,-2.30
2023-03-03T03:20:18.200Z,-2.38
2023-03-03T03:22:44.738Z,-2.41
2023-03-03T03:25:11.144Z,-2.41
2023-03-03T03:27:37.992Z,-2.43
2023-03-03T03:30:05.072Z,-2.42
2023-03-03T03:32:32.118Z,-2.43
2023-03-03T03:34:59.589Z,-2.43
2023-03-03T03:37:25.991Z,-2.43
2023-03-03T03:39:52.557Z,-2.41
2023-03-03T03:42:19.201Z,-2.39
2023-03-03T03:44:45.452Z,-2.38
2023-03-03T03:47:11.763Z,-2.36
2023-03-03T03:49:38.088Z,-2.35
2023-03-03T03:52:05.114Z,-2.33
2023-03-03T03:54:32.532Z,-2.31
2023-03-03T03:56:58.997Z,-2.29
2023-03-03T03:59:25.701Z,-2.30
2023-03-03T04:01:52.301Z,-2.33
2023-03-03T04:04:19.014Z,-2.34
2023-03-03T04:06:45.349Z,-2.33
2023-03-03T04:09:12.805Z,-2.33
2023-03-03T04:11:39.357Z,-2.34
2023-03-03T04:14:06.912Z,-2.39
2023-03-03T04:16:34.339Z,-2.45
2023-03-03T04:19:01.164Z,-2.48
2023-03-03T04:21:28.218Z,-2.51
2023-03-03T04:23:55.807Z,-2.56
2023-03-03T04:26:22.378Z,-2.62
2023-03-03T04:28:48.885Z,-2.67
2023-03-03T04:31:15.680Z,-2.73
2023-03-03T04:33:42.144Z,-2.79
2023-03-03T04:36:08.574Z,-2.86
2023-03-03T04:38:34.918Z,-2.96
2023-03-03T04:41:01.650Z,-3.03
2023-03-03T04:43:31.329Z,-3.08
2023-03-03T04:45:57.895Z,-3.09
2023-03-03T04:48:24.431Z,-3.07
2023-03-03T04:50:52.283Z,-3.08
2023-03-03T04:53:19.180Z,-3.08
2023-03-03T04:55:45.945Z,-3.10
2023-03-03T04:58:12.715Z,-3.11
2023-03-03T05:00:39.575Z,-3.12
2023-03-03T05:03:06.663Z,-3.13
2023-03-03T05:05:33.129Z,-3.16
2023-03-03T05:07:59.407Z,-3.14
2023-03-03T05:10:25.663Z,-3.13
2023-03-03T05:12:51.942Z,-3.07
2023-03-03T05:15:18.265Z,-2.99
2023-03-03T05:17:44.540Z,-2.89
2023-03-03T05:20:11.307Z,-2.78
2023-03-03T05:22:37.680Z,-2.66
2023-03-03T05:25:05.129Z,-2.54
2023-03-03T05:27:31.500Z,-2.41
2023-03-03T05:29:57.796Z,-2.28
2023-03-03T05:32:24.404Z,-2.17
2023-03-03T05:34:50.751Z,-2.07
2023-03-03T05:37:17.116Z,-1.98
2023-03-03T05:39:43.483Z,-1.88
2023-03-03T05:42:11.374Z,-1.82
2023-03-03T05:44:37.772Z,-1.77
2023-03-03T05:47:04.157Z,-1.72
2023-03-03T05:49:30.398Z,-1.66
2023-03-03T05:51:56.668Z,-1.60
2023-03-03T05:54:23.133Z,-1.55
2023-03-03T05:56:49.402Z,-1.49
2023-03-03T05:59:15.744Z,-1.44
2023-03-03T06:01:42.396Z,-1.37
2023-03-03T06:04:08.764Z,-1.32
2023-03-03T06:06:35.041Z,-1.25
2023-03-03T06:09:01.624Z,-1.19
2023-03-03T06:11:27.908Z,-1.16
2023-03-03T06:13:54.240Z,-1.07
2023-03-03T06:16:20.563Z,-1.01
2023-03-03T06:18:46.937Z,-0.99
2023-03-03T06:21:13.263Z,-0.95
2023-03-03T06:23:40.126Z,-0.92
2023-03-03T06:26:06.438Z,-0.88
2023-03-03T06:28:32.872Z,-0.81
2023-03-03T06:30:59.218Z,-0.73
2023-03-03T06:33:25.686Z,-0.68
2023-03-03T06:35:52.694Z,-0.60
2023-03-03T06:38:19.106Z,-0.53
2023-03-03T06:40:45.851Z,-0.47
2023-03-03T06:43:12.491Z,-0.41
2023-03-03T06:45:38.958Z,-0.38
2023-03-03T06:48:05.674Z,-0.37
2023-03-03T06:50:32.104Z,-0.34
2023-03-03T06:53:07.124Z,-0.33
2023-03-03T06:55:33.493Z,-0.32
2023-03-03T06:58:00.396Z,-0.29
2023-03-03T07:00:29.575Z,-0.22
2023-03-03T07:02:58.784Z,-0.14
2023-03-03T07:05:27.164Z,-0.05
2023-03-03T07:07:55.046Z,0.04
2023-03-03T07:10:25.429Z,0.12
2023-03-03T07:12:52.172Z,0.20
2023-03-03T07:15:21.340Z,0.29
2023-03-03T07:20:42.848Z,0.47
2023-03-03T07:23:18.657Z,0.56
2023-03-03T07:25:45.376Z,0.61
2023-03-03T07:28:28.484Z,0.64
2023-03-03T07:30:58.101Z,0.65
2023-03-03T07:33:50.210Z,0.74
2023-03-03T07:36:30.802Z,0.85
2023-03-03T07:38:59.515Z,0.92
2023-03-03T07:41:26.947Z,1.00
2023-03-03T07:44:04.743Z,1.05
2023-03-03T07:46:34.661Z,1.05
2023-03-03T07:49:05.789Z,1.10
2023-03-03T07:51:37.638Z,1.18
2023-03-03T07:54:17.791Z,1.19
2023-03-03T07:56:47.104Z,1.15
2023-03-03T07:59:21.554Z,1.07
2023-03-03T08:01:52.747Z,0.93
2023-03-03T08:04:19.275Z,0.84
2023-03-03T08:06:53.683Z,0.75
2023-03-03T08:09:29.364Z,0.70
2023-03-03T08:11:59.604Z,0.75
2023-03-03T08:14:28.494Z,0.87
2023-03-03T08:16:55.739Z,1.02
2023-03-03T08:19:22.752Z,1.14
2023-03-03T08:21:49.390Z,1.25
2023-03-03T08:24:15.721Z,1.38
2023-03-03T08:26:42.018Z,1.52
2023-03-03T08:29:08.351Z,1.62
2023-03-03T08:31:41.598Z,1.70
2023-03-03T08:34:08.730Z,1.71
2023-03-03T08:36:35.358Z,1.68
2023-03-03T08:39:02.938Z,1.61
2023-03-03T08:41:42.681Z,1.50
2023-03-03T08:44:11.912Z,1.40
2023-03-03T08:46:38.400Z,1.32
2023-03-03T08:49:05.206Z,1.24
2023-03-03T08:51:31.634Z,1.16
2023-03-03T08:53:58.289Z,1.14
2023-03-03T08:56:24.952Z,1.18
2023-03-03T08:59:02.114Z,1.17
2023-03-03T09:01:31.036Z,1.15
2023-03-03T09:03:57.612Z,1.10
2023-03-03T09:06:24.400Z,1.05
2023-03-03T09:08:51.088Z,1.05
2023-03-03T09:11:21.518Z,1.04
2023-03-03T09:13:47.842Z,1.05
2023-03-03T09:16:14.903Z,1.05
2023-03-03T09:18:41.999Z,1.06
2023-03-03T09:21:21.884Z,1.10
2023-03-03T09:23:55.801Z,1.20
2023-03-03T09:26:26.707Z,1.27
2023-03-03T09:29:07.940Z,1.26
2023-03-03T09:31:37.132Z,1.30
2023-03-03T09:34:19.245Z,1.38
2023-03-03T09:36:45.672Z,1.41
2023-03-03T11:56:43.094Z,2.16
2023-03-03T11:59:28.342Z,2.32
2023-03-03T12:02:01.329Z,2.35
2023-03-03T12:04:34.376Z,2.38
2023-03-03T12:07:33.818Z,2.41
2023-03-03T12:10:15.887Z,2.41
2023-03-03T12:13:01.378Z,2.42
2023-03-03T12:15:44.339Z,2.43
2023-03-03T12:18:17.110Z,2.39
2023-03-03T12:20:48.412Z,2.36
2023-03-03T12:23:14.915Z,2.35
2023-03-03T12:25:46.914Z,2.31
2023-03-03T12:28:22.119Z,2.31
2023-03-03T12:30:49.472Z,2.34
2023-03-03T12:33:33.692Z,2.40
2023-03-03T12:36:06.513Z,2.48
2023-03-03T12:38:42.706Z,2.56
2023-03-03T12:41:14.865Z,2.60
2023-03-03T12:43:56.493Z,2.59
2023-03-03T12:46:42.713Z,2.58
2023-03-03T12:49:14.799Z,2.63
2023-03-03T12:52:31.815Z,2.73
2023-03-03T12:55:20.317Z,2.84
2023-03-03T12:58:01.939Z,2.88
2023-03-03T13:00:49.948Z,2.94
2023-03-03T13:03:30.335Z,3.04
2023-03-03T13:06:07.302Z,3.09
2023-03-03T13:08:37.620Z,3.19
2023-03-03T13:11:29.969Z,3.57
2023-03-03T13:14:10.788Z,4.03
2023-03-03T13:16:42.701Z,4.13
2023-03-03T13:19:25.877Z,4.17
2023-03-03T13:22:06.869Z,4.08
2023-03-03T13:24:52.326Z,4.00
2023-03-03T13:27:31.853Z,3.92
2023-03-03T13:30:11.489Z,3.90
2023-03-03T13:32:44.170Z,3.91
2023-03-03T13:35:30.728Z,3.86
2023-03-03T13:37:57.898Z,3.81
2023-03-03T13:40:36.541Z,3.76
2023-03-03T13:43:19.202Z,3.73
2023-03-03T13:46:04.723Z,3.72
2023-03-03T13:48:35.704Z,3.67
2023-03-03T13:51:09.752Z,3.62
2023-03-03T13:53:55.020Z,3.57
2023-03-03T13:56:34.463Z,3.54
2023-03-03T13:59:08.402Z,3.42
2023-03-03T14:01:51.112Z,3.29
2023-03-03T14:04:36.306Z,3.20
2023-03-03T14:07:17.695Z,3.12
2023-03-03T14:10:01.340Z,3.10
2023-03-03T14:12:36.884Z,3.02
2023-03-03T14:15:20.603Z,2.94
2023-03-03T14:17:50.301Z,2.87
2023-03-03T14:20:23.567Z,2.84
2023-03-03T14:22:53.362Z,2.83
2023-03-03T14:25:22.364Z,2.82
2023-03-03T14:28:10.479Z,2.84
2023-03-03T14:30:38.681Z,2.82
2023-03-03T14:33:10.772Z,2.75
2023-03-03T14:35:41.669Z,2.69
2023-03-03T14:38:08.165Z,2.62
2023-03-03T14:40:38.547Z,2.55
2023-03-03T14:43:18.070Z,2.52
2023-03-03T14:45:45.967Z,2.47
2023-03-03T14:48:26.495Z,2.43
2023-03-03T14:50:59.884Z,2.40
2023-03-03T14:53:46.586Z,2.31
2023-03-03T14:56:24.026Z,2.23
2023-03-03T14:58:51.477Z,2.20
2023-03-03T15:01:32.195Z,2.15
2023-03-03T15:04:04.860Z,2.08
2023-03-03T15:06:42.518Z,2.02
2023-03-03T15:09:24.326Z,1.96
2023-03-03T15:11:52.083Z,1.93
2023-03-03T15:14:30.116Z,1.91
2023-03-03T15:17:16.296Z,1.89
2023-03-03T15:19:48.320Z,1.87
2023-03-03T15:22:28.472Z,1.86
2023-03-03T15:25:13.826Z,1.81
2023-03-03T15:28:39.323Z,1.75
2023-03-03T15:31:15.878Z,1.70
2023-03-03T15:33:50.435Z,1.65
2023-03-03T15:36:25.524Z,1.64
2023-03-03T15:38:59.386Z,1.66
2023-03-03T15:41:37.103Z,1.69
2023-03-03T15:44:26.911Z,1.67
2023-03-03T15:47:17.168Z,1.64
2023-03-03T15:50:10.633Z,1.60
2023-03-03T15:52:55.570Z,1.55
2023-03-03T15:55:23.777Z,1.47
2023-03-03T15:57:59.845Z,1.41
2023-03-03T16:00:44.696Z,1.35
2023-03-03T16:03:19.150Z,1.29
2023-03-03T16:05:51.870Z,1.25
2023-03-03T16:08:29.816Z,1.22
2023-03-03T16:11:03.989Z,1.20
2023-03-03T16:13:56.473Z,1.18
2023-03-03T16:16:49.169Z,1.17
2023-03-03T16:19:40.965Z,1.15
2023-03-03T16:22:13.775Z,1.12
2023-03-03T16:24:46.853Z,1.10
2023-03-03T16:27:35.208Z,1.09
2023-03-03T16:30:30.417Z,1.09
2023-03-03T16:33:20.105Z,1.09
2023-03-03T16:35:57.561Z,1.05
2023-03-03T16:38:36.811Z,1.03
2023-03-03T16:41:15.311Z,1.00
2023-03-03T16:44:15.667Z,0.98
2023-03-03T16:46:47.087Z,0.97
2023-03-03T16:49:26.404Z,0.95
2023-03-03T16:52:31.745Z,0.92
2023-03-03T16:55:10.909Z,0.91
2023-03-03T16:58:06.921Z,0.90
2023-03-03T17:00:40.804Z,0.90
2023-03-03T17:03:27.102Z,0.89
2023-03-03T17:06:26.236Z,0.90
2023-03-03T17:09:08.939Z,0.88
2023-03-03T17:12:10.186Z,0.85
2023-03-03T17:15:10.217Z,0.82
2023-03-03T17:18:18.891Z,0.82
2023-03-03T17:20:55.069Z,0.81
